CheckWX is a tool to help pilots better visualize weather data.  It is not intended as a substitute for an official pre-flight weather briefing.

13:40:28 UTC

K4BM METAR
Wilkerson Pass Airport
Wilkerson Pass, Colorado, USA
Current

28 mins ago

K4BM 201312Z AUTO 33005KT 10SM CLR 15/M05 A3055 RMK AO2
Observed
Jul-20 @ 13:12 UTC
Wind
  • 330° at 5 KTS
Visibility
10 SM
Flight Rules
VFR
Cloud Levels
  • Clear skies
Temperature
15°C / 59°F
Dewpoint
-5°C / 23°F
Humidity
25%
Altimeter
30.55" Hg
Pressure
1034.52 hPa
Previous

44 mins ago

K4BM 201256Z AUTO 33007KT 300V360 10SM CLR 15/M05 A3055 RMK AO2
Observed
Jul-20 @ 12:56 UTC
Wind
  • 330° at 7 KTS
Visibility
10 SM
Flight Rules
VFR
Cloud Levels
  • Clear skies
Temperature
15°C / 59°F
Dewpoint
-5°C / 23°F
Humidity
25%
Altimeter
30.55" Hg
Pressure
1034.52 hPa
Previous

1 hour ago

K4BM 201232Z AUTO 31007KT 10SM CLR 15/M05 A3055 RMK AO2
Observed
Jul-20 @ 12:32 UTC
Wind
  • 310° at 7 KTS
Visibility
10 SM
Flight Rules
VFR
Cloud Levels
  • Clear skies
Temperature
15°C / 59°F
Dewpoint
-5°C / 23°F
Humidity
25%
Altimeter
30.55" Hg
Pressure
1034.52 hPa